createdAt,value
2022-12-09T00:01:18.417Z,1.00
2022-12-09T00:03:47.462Z,1.00
2022-12-09T00:06:20.037Z,1.10
2022-12-09T00:08:47.270Z,1.10
2022-12-09T00:11:14.705Z,1.10
2022-12-09T00:13:41.828Z,0.80
2022-12-09T00:16:11.980Z,0.60
2022-12-09T00:18:40.158Z,0.70
2022-12-09T00:21:20.517Z,0.80
2022-12-09T00:23:48.329Z,0.80
2022-12-09T00:26:15.913Z,0.70
2022-12-09T00:28:43.857Z,0.70
2022-12-09T00:31:15.174Z,0.70
2022-12-09T00:33:42.565Z,0.80
2022-12-09T00:36:11.852Z,0.80
2022-12-09T00:38:39.218Z,0.90
2022-12-09T00:41:06.649Z,0.80
2022-12-09T00:43:33.911Z,0.70
2022-12-09T00:46:01.492Z,0.60
2022-12-09T00:48:29.351Z,0.40
2022-12-09T00:50:56.465Z,0.40
2022-12-09T00:53:23.470Z,0.50
2022-12-09T00:55:50.642Z,0.40
2022-12-09T00:58:19.998Z,0.40
2022-12-09T01:00:46.887Z,0.30
2022-12-09T01:03:19.026Z,0.50
2022-12-09T01:05:46.672Z,0.40
2022-12-09T01:08:15.141Z,0.30
2022-12-09T01:10:44.774Z,0.30
2022-12-09T01:13:16.400Z,0.40
2022-12-09T01:15:44.843Z,0.40
2022-12-09T01:18:13.767Z,0.50
2022-12-09T01:20:41.126Z,0.60
2022-12-09T01:23:08.459Z,0.70
2022-12-09T01:25:37.550Z,0.60
2022-12-09T01:28:04.549Z,0.40
2022-12-09T01:30:31.444Z,0.20
2022-12-09T01:32:58.514Z,0.40
2022-12-09T01:35:25.633Z,0.50
2022-12-09T01:37:53.305Z,0.60
2022-12-09T01:40:20.293Z,0.60
2022-12-09T01:42:49.511Z,0.60
2022-12-09T01:45:23.444Z,0.60
2022-12-09T01:48:18.658Z,0.50
2022-12-09T01:50:48.306Z,0.30
2022-12-09T01:53:16.769Z,0.20
2022-12-09T01:55:44.468Z,0.10
2022-12-09T01:58:12.603Z,0.30
2022-12-09T02:00:39.344Z,0.10
2022-12-09T02:03:07.749Z,0.10
2022-12-09T02:05:35.630Z,0.30
2022-12-09T02:08:06.402Z,0.50
2022-12-09T02:10:36.698Z,0.30
2022-12-09T02:13:44.464Z,0.20
2022-12-09T02:16:17.879Z,0.30
2022-12-09T02:19:19.151Z,0.20
2022-12-09T02:21:53.699Z,0.30
2022-12-09T02:24:26.999Z,0.50
2022-12-09T02:27:12.762Z,0.70
2022-12-09T02:29:48.911Z,0.60
2022-12-09T02:32:38.480Z,0.80
2022-12-09T02:35:18.930Z,0.70
2022-12-09T02:37:48.865Z,0.60
2022-12-09T02:40:34.670Z,0.60
2022-12-09T02:43:05.317Z,0.60
2022-12-09T02:45:33.968Z,0.60
2022-12-09T02:48:02.836Z,0.70
2022-12-09T02:50:34.835Z,0.80
2022-12-09T02:53:07.697Z,0.80
2022-12-09T02:55:37.429Z,0.90
2022-12-09T02:58:04.251Z,1.00
2022-12-09T03:00:31.228Z,1.00
2022-12-09T03:03:03.039Z,1.10
2022-12-09T03:05:34.164Z,1.20
2022-12-09T03:08:15.818Z,1.30
2022-12-09T03:10:53.501Z,1.40
2022-12-09T03:13:45.711Z,1.40
2022-12-09T03:16:39.309Z,1.20
2022-12-09T03:19:14.727Z,1.10
2022-12-09T03:21:45.979Z,0.90
2022-12-09T03:24:18.389Z,0.70
2022-12-09T03:26:46.108Z,0.60
2022-12-09T03:29:19.230Z,0.80
2022-12-09T03:31:49.329Z,1.00
2022-12-09T03:34:20.042Z,1.20
2022-12-09T03:36:50.304Z,1.20
2022-12-09T03:39:23.543Z,1.40
2022-12-09T03:42:04.461Z,1.40
2022-12-09T03:44:42.035Z,1.50
2022-12-09T03:47:09.812Z,1.30
2022-12-09T03:49:39.646Z,1.40
2022-12-09T03:52:31.254Z,1.50
2022-12-09T03:55:05.751Z,1.50
2022-12-09T03:57:37.248Z,1.30
2022-12-09T04:00:05.615Z,1.10
2022-12-09T04:02:33.512Z,1.30
2022-12-09T04:05:00.858Z,1.30
2022-12-09T04:07:27.985Z,1.20
2022-12-09T04:09:55.280Z,0.70
2022-12-09T04:12:22.478Z,0.60
2022-12-09T04:14:49.727Z,0.60
2022-12-09T04:17:18.104Z,0.90
2022-12-09T04:19:45.168Z,1.30
2022-12-09T04:22:12.213Z,1.10
2022-12-09T04:24:39.237Z,1.10
2022-12-09T04:27:07.141Z,1.30
2022-12-09T04:29:34.292Z,1.40
2022-12-09T04:32:01.353Z,1.50
2022-12-09T04:34:28.426Z,1.40
2022-12-09T04:36:55.578Z,1.40
2022-12-09T04:39:22.781Z,1.50
2022-12-09T04:41:50.863Z,1.30
2022-12-09T04:44:18.883Z,1.20
2022-12-09T04:46:45.778Z,0.90
2022-12-09T04:49:12.634Z,0.70
2022-12-09T04:51:40.478Z,1.00
2022-12-09T04:54:13.776Z,1.10
2022-12-09T04:56:41.132Z,1.10
2022-12-09T04:59:08.683Z,1.00
2022-12-09T05:01:36.282Z,1.30
2022-12-09T05:04:04.244Z,1.40
2022-12-09T05:06:31.978Z,1.10
2022-12-09T05:08:59.429Z,1.10
2022-12-09T05:11:28.439Z,1.10
2022-12-09T05:13:56.605Z,1.20
2022-12-09T05:16:24.212Z,1.10
2022-12-09T05:18:51.608Z,0.80
2022-12-09T05:21:21.652Z,1.00
2022-12-09T05:23:49.935Z,1.00
2022-12-09T05:26:20.687Z,1.10
2022-12-09T05:28:48.086Z,1.20
2022-12-09T05:31:17.932Z,1.20
2022-12-09T05:33:47.702Z,0.90
2022-12-09T05:36:17.747Z,0.90
2022-12-09T05:38:45.141Z,0.90
2022-12-09T05:41:12.973Z,0.80
2022-12-09T05:43:41.040Z,0.80
2022-12-09T05:46:09.491Z,1.00
2022-12-09T05:48:37.395Z,1.20
2022-12-09T05:51:07.491Z,1.20
2022-12-09T05:53:35.357Z,1.40
2022-12-09T05:56:03.927Z,1.30
2022-12-09T05:58:31.350Z,1.50
2022-12-09T06:01:05.583Z,1.40
2022-12-09T06:03:33.108Z,1.10
2022-12-09T06:06:15.322Z,1.00
2022-12-09T06:08:44.509Z,0.70
2022-12-09T06:11:20.380Z,0.50
2022-12-09T06:13:50.661Z,0.70
2022-12-09T06:16:19.812Z,1.00
2022-12-09T06:18:48.409Z,0.90
2022-12-09T06:21:19.131Z,0.80
2022-12-09T06:23:48.299Z,0.80
2022-12-09T06:26:21.536Z,0.80
2022-12-09T06:28:49.441Z,0.60
2022-12-09T06:31:17.231Z,0.60
2022-12-09T06:34:00.500Z,0.70
2022-12-09T06:36:30.432Z,1.00
2022-12-09T06:39:03.085Z,1.00
2022-12-09T06:41:33.362Z,1.00
2022-12-09T06:44:00.708Z,1.10
2022-12-09T06:46:29.500Z,0.80
2022-12-09T06:48:57.019Z,0.60
2022-12-09T06:51:26.095Z,0.50
2022-12-09T06:53:54.202Z,0.60
2022-12-09T06:56:21.807Z,0.80
2022-12-09T06:58:49.137Z,0.90
2022-12-09T07:01:22.154Z,0.90
2022-12-09T07:03:52.430Z,0.90
2022-12-09T07:06:55.179Z,0.90
2022-12-09T07:09:22.992Z,0.90
2022-12-09T07:11:50.886Z,0.90
2022-12-09T07:14:19.158Z,0.80
2022-12-09T07:16:46.938Z,0.80
2022-12-09T07:19:20.200Z,0.70
2022-12-09T07:21:48.639Z,0.60
2022-12-09T07:24:16.128Z,0.60
2022-12-09T07:26:43.375Z,0.40
2022-12-09T07:29:10.580Z,0.10
2022-12-09T07:31:38.228Z,0.00
2022-12-09T07:34:06.189Z,0.20
2022-12-09T07:36:35.134Z,0.30
2022-12-09T07:39:05.462Z,0.30
2022-12-09T07:41:32.402Z,0.20
2022-12-09T07:43:59.802Z,0.40
2022-12-09T07:46:29.975Z,0.40
2022-12-09T07:48:58.496Z,0.50
2022-12-09T07:51:26.294Z,0.50
2022-12-09T07:53:54.077Z,0.20
2022-12-09T07:56:22.391Z,0.10
2022-12-09T07:58:53.388Z,0.00
2022-12-09T08:01:28.531Z,-0.10
2022-12-09T08:03:56.517Z,0.00
2022-12-09T08:06:27.428Z,-0.20
2022-12-09T08:08:59.784Z,-0.10
2022-12-09T08:11:29.290Z,-0.10
2022-12-09T08:13:58.313Z,-0.20
2022-12-09T08:16:26.570Z,0.00
2022-12-09T08:18:55.462Z,-0.10
2022-12-09T08:21:30.731Z,-0.10
2022-12-09T08:24:00.662Z,-0.40
2022-12-09T08:26:30.659Z,-0.40
2022-12-09T08:28:58.090Z,-0.10
2022-12-09T08:31:27.469Z,0.10
2022-12-09T08:33:55.796Z,0.10
2022-12-09T08:36:26.385Z,0.20
2022-12-09T08:38:54.466Z,0.40
2022-12-09T08:41:35.843Z,0.50
2022-12-09T08:44:15.299Z,0.60
2022-12-09T08:46:45.581Z,0.70
2022-12-09T08:49:18.057Z,0.80
2022-12-09T08:51:47.454Z,0.90
2022-12-09T08:54:14.656Z,0.90
2022-12-09T08:56:48.447Z,1.10
2022-12-09T08:59:16.072Z,1.20
2022-12-09T09:01:43.264Z,1.30
2022-12-09T09:04:12.582Z,1.40
2022-12-09T09:06:41.691Z,1.50
2022-12-09T09:09:10.883Z,1.20
2022-12-09T09:11:38.418Z,1.20
2022-12-09T09:14:07.015Z,1.40
2022-12-09T09:16:34.715Z,1.50
2022-12-09T09:19:03.785Z,1.40
2022-12-09T09:21:30.744Z,1.20
2022-12-09T09:23:58.247Z,1.10
2022-12-09T09:26:28.178Z,0.80
2022-12-09T09:28:56.471Z,1.00
2022-12-09T09:31:25.027Z,1.20
2022-12-09T09:33:52.962Z,0.90
2022-12-09T09:36:23.662Z,0.70
2022-12-09T09:38:55.308Z,1.00
2022-12-09T09:41:42.546Z,1.00
2022-12-09T09:44:19.670Z,1.30
2022-12-09T09:46:49.819Z,1.30
2022-12-09T09:49:28.822Z,1.30
2022-12-09T09:51:56.364Z,1.20
2022-12-09T09:54:23.549Z,1.30
2022-12-09T09:57:15.709Z,1.60
2022-12-09T09:59:50.044Z,1.80
2022-12-09T10:02:41.882Z,1.90
2022-12-09T10:05:21.841Z,2.10
2022-12-09T10:07:53.580Z,1.80
2022-12-09T10:10:35.405Z,1.50
2022-12-09T10:13:29.586Z,1.20
2022-12-09T10:16:14.393Z,0.90
2022-12-09T10:19:12.370Z,1.20
2022-12-09T10:21:43.432Z,1.40
2022-12-09T10:24:40.463Z,1.60
2022-12-09T10:27:30.545Z,1.70
2022-12-09T10:30:14.400Z,1.60
2022-12-09T10:32:42.220Z,1.30
2022-12-09T10:35:15.636Z,1.30
2022-12-09T10:37:43.091Z,1.40
2022-12-09T10:40:10.540Z,1.70
2022-12-09T10:43:14.443Z,2.00
2022-12-09T10:48:53.308Z,2.40
2022-12-09T10:51:25.938Z,2.40
2022-12-09T10:54:10.600Z,2.40
2022-12-09T10:56:59.455Z,2.40
2022-12-09T10:59:29.958Z,2.40
2022-12-09T11:02:03.698Z,1.90
2022-12-09T11:04:38.431Z,1.50
2022-12-09T11:07:15.691Z,1.70
2022-12-09T11:09:45.024Z,1.50
2022-12-09T11:12:27.420Z,1.80
2022-12-09T11:15:23.985Z,1.80
2022-12-09T11:17:58.557Z,1.70
2022-12-09T11:20:28.580Z,1.90
2022-12-09T11:23:19.728Z,2.00
2022-12-09T11:25:59.391Z,1.60
2022-12-09T11:28:29.360Z,1.70
2022-12-09T11:33:54.283Z,1.40
2022-12-09T11:36:29.981Z,1.20
2022-12-09T11:39:16.105Z,1.20
2022-12-09T11:42:11.435Z,1.40
2022-12-09T11:44:48.080Z,1.60
2022-12-09T11:47:26.711Z,1.30
2022-12-09T11:49:57.052Z,1.20
2022-12-09T11:52:27.221Z,1.20
2022-12-09T11:55:02.796Z,1.10
2022-12-09T11:57:38.225Z,1.30
2022-12-09T12:00:27.897Z,1.00
2022-12-09T12:03:19.464Z,0.80
2022-12-09T12:05:50.312Z,0.90
2022-12-09T12:08:29.069Z,0.80
2022-12-09T12:11:26.764Z,0.80
2022-12-09T12:14:04.212Z,1.20
2022-12-09T12:16:46.220Z,1.70
2022-12-09T12:19:31.753Z,2.00
2022-12-09T12:22:04.161Z,2.00
2022-12-09T12:24:43.151Z,1.90
2022-12-09T12:27:28.405Z,1.80
2022-12-09T12:30:14.567Z,1.80
2022-12-09T12:33:33.124Z,1.60
2022-12-09T12:35:51.710Z,1.60
2022-12-09T12:38:37.101Z,1.70
2022-12-09T12:41:47.056Z,1.90
2022-12-09T12:44:39.899Z,2.30
2022-12-09T12:47:18.116Z,2.40
2022-12-09T12:49:57.845Z,2.40
2022-12-09T12:55:47.335Z,2.60
2022-12-09T12:58:16.700Z,2.60
2022-12-09T13:01:22.409Z,2.50
2022-12-09T13:03:58.644Z,2.60
2022-12-09T13:06:51.038Z,2.60
2022-12-09T13:09:48.249Z,2.30
2022-12-09T13:12:51.161Z,2.50
2022-12-09T13:15:21.334Z,2.70
2022-12-09T13:17:49.293Z,3.00
2022-12-09T13:20:30.108Z,2.80
2022-12-09T13:23:07.533Z,2.50
2022-12-09T13:26:02.807Z,1.90
2022-12-09T13:28:37.213Z,2.30
2022-12-09T13:31:09.237Z,2.60
2022-12-09T13:34:08.269Z,2.60
2022-12-09T13:36:42.952Z,2.50
2022-12-09T13:39:11.802Z,2.10
2022-12-09T13:41:59.860Z,2.00
2022-12-09T13:44:32.461Z,2.00
2022-12-09T13:47:14.380Z,2.00
2022-12-09T13:49:41.242Z,1.90
2022-12-09T13:52:08.801Z,1.40
2022-12-09T13:54:47.031Z,1.20
2022-12-09T13:57:20.577Z,1.30
2022-12-09T13:59:55.015Z,1.50
2022-12-09T14:02:31.427Z,1.50
2022-12-09T14:05:23.463Z,1.70
2022-12-09T14:08:01.464Z,1.80
2022-12-09T14:10:46.333Z,1.70
2022-12-09T14:13:31.944Z,1.20
2022-12-09T14:16:31.040Z,1.30
2022-12-09T14:18:57.841Z,1.10
2022-12-09T14:21:30.585Z,0.70
2022-12-09T14:24:09.580Z,0.90
2022-12-09T14:26:45.224Z,1.10
2022-12-09T14:29:12.421Z,1.10
2022-12-09T14:32:02.165Z,1.20
2022-12-09T14:34:36.306Z,1.20
2022-12-09T14:37:11.559Z,1.20
2022-12-09T14:39:47.537Z,1.50
2022-12-09T14:42:32.480Z,1.30
2022-12-09T14:45:51.413Z,1.40
2022-12-09T14:48:31.008Z,1.20
2022-12-09T14:51:18.735Z,1.30
2022-12-09T14:54:08.096Z,1.20
2022-12-09T14:56:35.442Z,1.10
2022-12-09T14:59:09.874Z,1.00
2022-12-09T15:01:59.427Z,1.10
2022-12-09T15:04:44.795Z,1.40
2022-12-09T15:07:21.080Z,1.40
2022-12-09T15:10:01.352Z,1.70
2022-12-09T15:12:43.114Z,1.60
2022-12-09T15:15:21.248Z,1.30
2022-12-09T15:17:56.919Z,1.30
2022-12-09T15:20:29.399Z,1.20
2022-12-09T15:23:30.919Z,1.20
2022-12-09T15:26:25.608Z,1.50
2022-12-09T15:28:56.228Z,1.60
2022-12-09T16:01:59.383Z,1.20
2022-12-09T16:04:51.288Z,1.40
2022-12-09T16:07:20.617Z,1.40
2022-12-09T16:10:13.588Z,1.50
2022-12-09T16:12:43.000Z,1.50
2022-12-09T16:15:14.517Z,1.70
2022-12-09T16:17:56.541Z,1.80
2022-12-09T16:20:41.277Z,1.80
2022-12-09T16:23:20.686Z,1.80
2022-12-09T16:25:49.941Z,1.90
2022-12-09T16:28:25.947Z,1.90
2022-12-09T16:31:00.645Z,2.00
2022-12-09T16:33:29.654Z,1.90
2022-12-09T16:36:07.580Z,1.90
2022-12-09T16:38:36.963Z,1.90
2022-12-09T16:41:07.359Z,1.90
2022-12-09T16:43:36.034Z,2.10
2022-12-09T16:46:15.076Z,2.10
2022-12-09T16:48:42.574Z,2.10
2022-12-09T16:51:14.065Z,2.00
2022-12-09T16:53:47.444Z,1.90
2022-12-09T16:56:24.671Z,2.00
2022-12-09T16:58:52.443Z,1.90
2022-12-09T17:01:21.583Z,1.70
2022-12-09T17:04:00.894Z,1.70
2022-12-09T17:06:28.681Z,1.70
2022-12-09T17:08:57.365Z,1.80
2022-12-09T17:11:24.203Z,1.90
2022-12-09T17:13:53.524Z,1.90
2022-12-09T17:16:25.808Z,1.20
2022-12-09T17:18:53.572Z,0.80
2022-12-09T17:21:20.405Z,0.60
2022-12-09T17:23:47.496Z,0.60
2022-12-09T17:26:19.956Z,0.50
2022-12-09T17:28:47.709Z,0.50
2022-12-09T17:31:21.497Z,0.60
2022-12-09T17:33:48.303Z,0.70
2022-12-09T17:36:16.058Z,0.80
2022-12-09T17:38:43.145Z,0.80
2022-12-09T17:41:13.279Z,0.90
2022-12-09T17:43:43.004Z,0.70
2022-12-09T17:46:10.634Z,0.60
2022-12-09T17:48:39.781Z,0.70
2022-12-09T17:51:10.860Z,0.60
2022-12-09T17:53:38.963Z,0.60
2022-12-09T17:56:19.676Z,0.70
2022-12-09T17:58:47.445Z,0.80
2022-12-09T18:01:17.068Z,0.80
2022-12-09T18:04:04.465Z,0.70
2022-12-09T18:06:34.223Z,0.60
2022-12-09T18:09:06.462Z,0.70
2022-12-09T18:11:34.640Z,0.50
2022-12-09T18:14:01.430Z,0.40
2022-12-09T18:16:28.578Z,0.30
2022-12-09T18:18:56.323Z,0.40
2022-12-09T18:21:23.711Z,0.30
2022-12-09T18:23:50.460Z,0.20
2022-12-09T18:26:19.173Z,0.10
2022-12-09T18:28:46.293Z,0.10
2022-12-09T18:31:17.094Z,0.10
2022-12-09T18:33:43.905Z,0.10
2022-12-09T18:36:15.627Z,0.10
2022-12-09T18:38:42.647Z,0.10
2022-12-09T18:41:18.372Z,0.10
2022-12-09T18:43:46.743Z,0.10
2022-12-09T18:46:19.285Z,0.00
2022-12-09T18:48:48.389Z,0.00
2022-12-09T18:51:20.151Z,-0.10
2022-12-09T18:53:47.956Z,-0.10
2022-12-09T18:56:16.294Z,-0.10
2022-12-09T18:59:05.338Z,0.00
2022-12-09T19:01:31.487Z,0.00
2022-12-09T19:04:01.427Z,0.10
2022-12-09T19:06:33.405Z,0.00
2022-12-09T19:09:02.260Z,-0.10
2022-12-09T19:11:31.293Z,-0.20
2022-12-09T19:13:58.827Z,-0.20
2022-12-09T19:16:27.274Z,-0.20
2022-12-09T19:18:54.566Z,-0.10
2022-12-09T19:21:24.216Z,0.00
2022-12-09T19:23:51.556Z,0.00
2022-12-09T19:26:20.831Z,-0.20
2022-12-09T19:28:55.587Z,-0.20
2022-12-09T19:31:26.933Z,0.00
2022-12-09T19:33:59.220Z,0.20
2022-12-09T19:36:27.348Z,0.20
2022-12-09T19:38:54.539Z,0.30
2022-12-09T19:41:21.515Z,0.40
2022-12-09T19:43:48.228Z,0.40
2022-12-09T19:46:15.595Z,0.30
2022-12-09T19:48:47.013Z,0.20
2022-12-09T19:51:15.622Z,0.10
2022-12-09T19:53:42.775Z,0.20
2022-12-09T19:56:13.125Z,0.20
2022-12-09T19:58:41.207Z,0.00
2022-12-09T20:01:13.266Z,0.30
2022-12-09T20:03:42.338Z,0.30
2022-12-09T20:06:11.176Z,0.50
2022-12-09T20:08:38.444Z,0.70
2022-12-09T20:11:09.097Z,0.60
2022-12-09T20:13:37.766Z,0.70
2022-12-09T20:16:06.272Z,0.80
2022-12-09T20:18:33.361Z,0.80
2022-12-09T20:21:02.418Z,0.80
2022-12-09T20:23:29.411Z,0.70
2022-12-09T20:26:03.991Z,0.80
2022-12-09T20:28:31.466Z,0.60
2022-12-09T20:31:25.699Z,0.80
2022-12-09T20:33:54.503Z,0.80
2022-12-09T20:36:24.073Z,0.80
2022-12-09T20:38:54.219Z,0.90
2022-12-09T20:41:22.816Z,0.90
2022-12-09T20:43:54.432Z,0.60
2022-12-09T20:46:23.656Z,0.40
2022-12-09T20:48:51.076Z,0.40
2022-12-09T20:51:28.810Z,0.50
2022-12-09T20:53:56.408Z,0.50
2022-12-09T20:56:25.397Z,0.70
2022-12-09T20:58:56.196Z,0.80
2022-12-09T21:01:32.024Z,0.80
2022-12-09T21:04:00.768Z,1.00
2022-12-09T21:06:30.171Z,1.10
2022-12-09T21:08:59.944Z,1.20
2022-12-09T21:11:27.832Z,1.30
2022-12-09T21:14:00.439Z,1.30
2022-12-09T21:16:29.112Z,1.20
2022-12-09T21:18:58.467Z,1.10
2022-12-09T21:21:26.630Z,1.00
2022-12-09T21:23:54.347Z,1.00
2022-12-09T21:26:23.173Z,1.00
2022-12-09T21:28:50.637Z,1.20
2022-12-09T21:31:24.447Z,1.10
2022-12-09T21:33:53.597Z,1.00
2022-12-09T21:36:26.290Z,1.10
2022-12-09T21:38:55.216Z,1.20
2022-12-09T21:41:24.647Z,1.10
2022-12-09T21:43:52.623Z,1.20
2022-12-09T21:46:21.946Z,1.00
2022-12-09T21:48:52.336Z,0.80
2022-12-09T21:51:20.904Z,0.90
2022-12-09T21:53:49.665Z,0.90
2022-12-09T21:56:20.212Z,0.90
2022-12-09T21:58:48.713Z,0.90
2022-12-09T22:01:22.062Z,0.70
2022-12-09T22:03:49.411Z,0.50
2022-12-09T22:06:17.541Z,0.40
2022-12-09T22:08:45.720Z,0.60
2022-12-09T22:11:23.339Z,0.60
2022-12-09T22:13:51.744Z,0.60
2022-12-09T22:16:24.349Z,0.70
2022-12-09T22:18:54.045Z,0.80
2022-12-09T22:21:25.735Z,0.70
2022-12-09T22:23:55.018Z,0.80
2022-12-09T22:26:22.714Z,0.70
2022-12-09T22:28:50.027Z,0.70
2022-12-09T22:31:24.023Z,0.70
2022-12-09T22:33:53.228Z,0.90
2022-12-09T22:36:20.411Z,1.00
2022-12-09T22:38:47.777Z,1.10
2022-12-09T22:41:20.214Z,0.90
2022-12-09T22:43:48.883Z,1.00
2022-12-09T22:46:30.506Z,1.20
2022-12-09T22:49:00.085Z,1.20
2022-12-09T22:51:29.267Z,1.10
2022-12-09T22:53:57.328Z,1.00
2022-12-09T22:56:25.304Z,1.00
2022-12-09T22:58:52.096Z,0.90
2022-12-09T23:01:21.913Z,0.60
2022-12-09T23:03:48.543Z,0.60
2022-12-09T23:06:15.700Z,0.90
2022-12-09T23:08:43.902Z,1.10
2022-12-09T23:11:20.049Z,1.00
2022-12-09T23:13:46.980Z,0.60
2022-12-09T23:16:19.076Z,0.90
2022-12-09T23:18:46.587Z,1.00
2022-12-09T23:21:14.625Z,0.90
2022-12-09T23:23:41.767Z,1.00
2022-12-09T23:26:14.048Z,1.00
2022-12-09T23:28:43.991Z,0.80
2022-12-09T23:31:14.132Z,0.60
2022-12-09T23:33:42.523Z,0.30
2022-12-09T23:36:18.342Z,0.20
2022-12-09T23:38:48.142Z,0.20
2022-12-09T23:41:17.218Z,0.30
2022-12-09T23:43:45.592Z,0.20
2022-12-09T23:46:16.323Z,0.40
2022-12-09T23:48:48.276Z,0.60
2022-12-09T23:51:17.479Z,0.90
2022-12-09T23:53:46.350Z,1.10
2022-12-09T23:56:15.633Z,1.20
2022-12-09T23:58:44.996Z,1.00
